createdAt,value
2022-10-07T00:07:39.650Z,94.24
2022-10-07T00:22:40.260Z,94.70
2022-10-07T00:37:40.412Z,95.68
2022-10-07T00:52:40.484Z,94.06
2022-10-07T01:07:41.392Z,93.90
2022-10-07T01:22:42.721Z,93.99
2022-10-07T01:37:43.781Z,91.66
2022-10-07T01:52:44.509Z,89.83
2022-10-07T02:07:44.985Z,87.76
2022-10-07T02:22:46.170Z,86.33
2022-10-07T02:37:47.037Z,87.45
2022-10-07T02:52:47.992Z,86.19
2022-10-07T03:07:48.620Z,85.91
2022-10-07T03:22:49.236Z,83.94
2022-10-07T03:37:49.349Z,84.98
2022-10-07T03:52:49.430Z,87.59
2022-10-07T04:07:49.572Z,88.81
2022-10-07T04:22:49.679Z,89.75
2022-10-07T04:37:49.785Z,88.96
2022-10-07T04:52:49.909Z,88.31
2022-10-07T05:07:50.016Z,88.10
2022-10-07T05:22:50.204Z,87.48
2022-10-07T05:37:51.463Z,86.85
2022-10-07T05:52:51.384Z,85.74
2022-10-07T06:07:51.453Z,85.60
2022-10-07T06:22:51.591Z,89.69
2022-10-07T06:37:52.005Z,92.90
2022-10-07T06:52:52.466Z,91.46
2022-10-07T07:07:52.540Z,80.62
2022-10-07T07:22:52.626Z,81.29
2022-10-07T07:37:52.695Z,95.47
2022-10-07T07:52:57.172Z,99.99
2022-10-07T08:07:57.462Z,99.99
2022-10-07T08:22:59.067Z,96.91
2022-10-07T08:37:59.736Z,87.06
2022-10-07T08:52:59.846Z,81.45
2022-10-07T09:07:59.951Z,76.58
2022-10-07T09:22:59.931Z,71.50
2022-10-07T09:38:00.031Z,67.21
2022-10-07T09:53:00.628Z,65.87
2022-10-07T10:08:00.732Z,64.07
2022-10-07T10:23:00.826Z,59.96
2022-10-07T10:38:01.265Z,60.25
2022-10-07T10:53:01.681Z,57.30
2022-10-07T11:08:02.320Z,57.65
2022-10-07T11:23:02.924Z,55.24
2022-10-07T11:38:03.330Z,55.07
2022-10-07T11:53:03.772Z,55.44
2022-10-07T12:08:04.401Z,54.77
2022-10-07T12:23:04.964Z,54.44
2022-10-07T12:38:05.559Z,56.12
2022-10-07T12:53:05.720Z,55.22
2022-10-07T13:08:05.799Z,54.92
2022-10-07T13:23:05.921Z,54.60
2022-10-07T13:38:06.061Z,53.64
2022-10-07T13:53:06.181Z,51.62
2022-10-07T14:08:06.238Z,51.37
2022-10-07T14:23:06.394Z,51.12
2022-10-07T14:38:06.798Z,51.84
2022-10-07T14:53:06.779Z,51.32
2022-10-07T15:08:06.857Z,53.90
2022-10-07T15:23:07.425Z,56.95
2022-10-07T15:38:08.024Z,60.25
2022-10-07T15:53:08.596Z,64.70
2022-10-07T16:08:09.266Z,69.41
2022-10-07T16:23:09.309Z,74.07
2022-10-07T16:38:09.408Z,80.15
2022-10-07T16:53:09.969Z,85.53
2022-10-07T17:08:10.095Z,89.17
2022-10-07T17:23:10.201Z,92.91
2022-10-07T17:38:10.348Z,99.76
2022-10-07T17:53:10.487Z,99.99
2022-10-07T18:08:11.796Z,99.99
2022-10-07T18:23:11.927Z,99.99
2022-10-07T18:38:12.050Z,99.99
2022-10-07T18:53:12.134Z,99.99
2022-10-07T19:08:12.265Z,99.99
2022-10-07T19:23:12.371Z,99.99
2022-10-07T19:38:13.017Z,99.99
2022-10-07T19:53:13.114Z,99.82
2022-10-07T20:08:13.214Z,98.63
2022-10-07T20:23:13.329Z,97.28
2022-10-07T20:38:13.467Z,96.66
2022-10-07T20:53:13.523Z,95.87
2022-10-07T21:08:13.641Z,94.78
2022-10-07T21:23:14.254Z,93.49
2022-10-07T21:38:14.648Z,95.34
2022-10-07T21:53:14.543Z,93.89
2022-10-07T22:08:14.675Z,93.83
2022-10-07T22:23:14.761Z,92.94
2022-10-07T22:38:14.942Z,91.70
2022-10-07T22:53:15.047Z,91.49
2022-10-07T23:08:15.132Z,91.43
2022-10-07T23:23:15.719Z,90.70
2022-10-07T23:38:15.891Z,90.23
2022-10-07T23:53:16.013Z,90.48
